Flight Track Log - Related Links

Times and Time Zones

All times are in EDT time to prevent confusion due to time zone crossing. See the TYR850 flight status page for this flight to view local times or setup timezone preferences in your user account.

Time Position Orientation Groundspeed Altitude Reporting Facility
EDT Latitude Longitude Course Direction KTS MPH feet Rate Location/Type
Tue 10:46:00 PM 42.0000 19.4740 343° North  Level Estimated
Tue 10:47:00 PM 42.0975 19.4324 342° North  Level Estimated
Tue 10:48:00 PM 42.1949 19.3908 342° North  Level Estimated
Tue 10:49:00 PM 42.2924 19.3490 342° North  Level Estimated
Tue 10:50:00 PM 42.3899 19.3071 342° North  Level Estimated
Tue 10:51:00 PM 42.4873 19.2650 342° North  Level Estimated
Tue 10:52:00 PM 42.5847 19.2228 342° North  Level Estimated
Tue 10:53:00 PM 42.6821 19.1805 342° North  Level Estimated
Tue 10:54:00 PM 42.7795 19.1381 342° North  Level Estimated
Tue 10:55:00 PM 42.8768 19.0955 342° North  Level Estimated
Tue 10:56:00 PM 42.9742 19.0528 342° North  Level Estimated
Tue 10:57:00 PM 43.0715 19.0099 342° North  Level Estimated
Tue 10:58:00 PM 43.1688 18.9669 342° North  Level Estimated
Tue 10:59:00 PM 43.2661 18.9238 342° North  Level Estimated
Tue 11:00:00 PM 43.3634 18.8805 342° North  Level Estimated
Tue 11:01:00 PM 43.4607 18.8371 342° North  Level Estimated
Tue 11:02:00 PM 43.5579 18.7936 342° North  Level Estimated
Tue 11:03:00 PM 43.6552 18.7499 342° North  Level Estimated
Tue 11:04:00 PM 43.7524 18.7061 342° North  Level Estimated
Tue 11:05:00 PM 43.8496 18.6621 342° North  Level Estimated
Tue 11:06:00 PM 43.9468 18.6180 342° North  Level Estimated
Tue 11:07:00 PM 44.0439 18.5737 342° North  Level Estimated
Tue 11:08:00 PM 44.1411 18.5293 342° North  Level Estimated
Tue 11:09:00 PM 44.2382 18.4848 342° North  Level Estimated
Tue 11:10:00 PM 44.3354 18.4401 342° North  Level Estimated
Tue 11:11:00 PM 44.4324 18.3952 342° North  Level Estimated
Tue 11:12:00 PM 44.5295 18.3502 342° North  Level Estimated
Tue 11:13:00 PM 44.6266 18.3051 342° North  Level Estimated
Tue 11:14:00 PM 44.7236 18.2598 342° North  Level Estimated
Tue 11:15:00 PM 44.8207 18.2144 342° North  Level Estimated
Tue 11:16:00 PM 44.9177 18.1688 342° North  Level Estimated
Tue 11:17:00 PM 45.0147 18.1230 342° North  Level Estimated
Tue 11:18:00 PM 45.1116 18.0771 342° North  Level Estimated
Tue 11:19:00 PM 45.2086 18.0310 341° North  Level Estimated
Tue 11:20:00 PM 45.3055 17.9848 341° North  Level Estimated
Tue 11:21:00 PM 45.4025 17.9384 341° North  Level Estimated
Tue 11:22:00 PM 45.4994 17.8919 341° North  Level Estimated
Tue 11:23:00 PM 45.5962 17.8452 341° North  Level Estimated
Tue 11:24:00 PM 45.6931 17.7983 341° North  Level Estimated
Tue 11:25:00 PM 45.7899 17.7513 341° North  Level Estimated
Tue 11:26:00 PM 45.8867 17.7041 341° North  Level Estimated
Tue 11:27:00 PM 45.9836 17.6567 341° North  Level Estimated
Tue 11:28:00 PM 46.0803 17.6092 341° North  Level Estimated
Tue 11:29:00 PM 46.1771 17.5615 341° North  Level Estimated
Tue 11:30:00 PM 46.2738 17.5137 341° North  Level Estimated
Tue 11:31:00 PM 46.3706 17.4657 341° North  Level Estimated
Tue 11:32:00 PM 46.4673 17.4175 341° North  Level Estimated
Tue 11:33:00 PM 46.5639 17.3691 341° North  Level Estimated
Tue 11:34:00 PM 46.6606 17.3206 341° North  Level Estimated
Tue 11:35:00 PM 46.7573 17.2719 341° North  Level Estimated
Tue 11:36:00 PM 46.8539 17.2230 341° North  Level Estimated
Tue 11:37:00 PM 46.9505 17.1739 341° North  Level Estimated
Tue 11:38:00 PM 47.0471 17.1246 341° North  Level Estimated
Tue 11:39:00 PM 47.1436 17.0752 341° North  Level Estimated
Tue 11:40:00 PM 47.2402 17.0256 341° North  Level Estimated
Tue 11:41:00 PM 47.3367 16.9758 341° North  Level Estimated
Tue 11:42:00 PM 47.4332 16.9259 341° North  Level Estimated
Tue 11:43:00 PM 47.5296 16.8757 341° North  Level Estimated
Tue 11:44:00 PM 47.6261 16.8254 341° North  Level Estimated
Tue 11:45:00 PM 47.7225 16.7749 341° North  Level Estimated
Tue 11:46:00 PM 47.8189 16.7242 341° North  Level Estimated
Tue 11:47:00 PM 47.9153 16.6733 341° North  Level Estimated
Tue 11:48:00 PM 48.0117 16.6222 340° North  Level Estimated
Tue 11:49:00 PM 48.1080 16.5709 340° North  Level Estimated
Tue 11:50:00 PM 48.1103 16.5697 340° North  Level Estimated
Tue 11:51:00 PM 48.1103 16.5697 North  Level Estimated
Tue 11:52:00 PM 48.1103 16.5697 North  Level Estimated
Tue 11:53:00 PM 48.1103 16.5697 North  Level Estimated
Tue 11:54:00 PM 48.1103 16.5697 North  Level Estimated
Tue 11:55:00 PM 48.1103 16.5697 North  Level Estimated
Tue 11:56:00 PM 48.1103 16.5697 North  Level Estimated
Tue 11:57:00 PM 48.1103 16.5697 North  Level Estimated
Tue 11:58:00 PM 48.1103 16.5697 North  Level Estimated
Tue 11:59:00 PM 48.1103 16.5697 North  Level Estimated
Wed 12:00:00 AM 48.1103 16.5697 North  Level Estimated
Wed 12:01:00 AM 48.1103 16.5697 North  Level Estimated
Wed 12:02:00 AM 48.1103 16.5697 North  Level Estimated
Wed 12:03:00 AM 48.1103 16.5697 North  Level Estimated
Wed 12:04:00 AM 48.1103 16.5697 North  Level Estimated
Wed 12:05:00 AM 48.1103 16.5697 North  Level Estimated

Login

Don't have an account? Register now (free) for customized features, flight alerts, and more!